Accueil
METAR-TAF:

METAR-TAF

Aéroports :

Aéroport de Sept-Îles

Sept-Îles, Québec, Canada

latitude: 50-13N, longitude: 066-16W, altitude: 55 m

Observation

Le bulletin a été fait il y a 15 minutes, à 07:00 UTC
Vent 8 kt de nord-ouest
Température -10°C
Humidité 67%
Pression 1011 hPa
Visibilité: 24.1 km
Ciel clair

METAR: CYZV 170700Z 32008KT 15SM SKC M10/M15 A2984 RMK SLP111

Heure: 02:15 (07:15 UTC)

Prévision

Le bulletin a été fait il y a 1 heure et 37 minutes, à 05:38 UTC
Prévision valable du 17 à 06 UTC au 18 à 06 UTC
Vent 8 kt de nord-ouest
Visibilité: 10 km
Ciel clair

TAF: CYZV 170538Z 1706/1806 31008KT P6SM SKC RMK NXT FCST BY 171200Z

Observations et prévisions météorologiques de plus de 4000 aéroports (messages METAR et TAF).

Les stations disponibles sont représentées par des disques jaunes et rouges sur la carte.

Passer la souris dessus pour voir le nom de la station.

Cliquer dessus pour voir les observations et prévisions météorologiques.

Pour changer de carte: cliquez sur les boutons verts avec une croix noire pour zoomer, sur le bouton vert avec un tiret pour effectuer un zoom arrière, ou sur les flèches vertes pour les cartes adjacentes.


METAR-TAF: